Washington, District of Columbia
Traffic Map
Current Weather Conditions
Washington, District of Columbia
Broken Clouds
Broken Clouds
12°
Feels Like: 12°
Wind Chill: 12° Ceiling: 25000
Heat Index: 12° Visibility: 10mi
Dew Point: Wind: 14mph
Humidity: 51% Direction: 70° (ENE)
Pressure: 30.4in Gusts: 0mph
Raw Report DataKDCA 201252Z 07012KT 10SM FEW140 BKN250 12/02 A3040 RMK AO2 SLP294 T01220022
Traffic Incident Summary
Active as of:
Severity:
Category:
InformationThere was an issue retrieving the traffic information for this location. Please try a different location or try again shortly.
Advertisements
At Last! Intellicast now available for iPhone and Android